San Felipe, Texas
Current Conditions -  °F | °C
As of 3:15 PM on Monday 22 Dec 2014 (Local Time) from KTME Reporting Station
Clear Clear  
Wind Chill: 70°   Ceiling: Unl
Heat Index: 70°   Visibility: 10mi
Dew Point: 61°   Wind: 12mph
Humidity: 73%   Direction: 230°SW
Pressure: 29.64"   Gusts: NA
Location:  29.79°N, 96.1°W
Report Text: KTME 222115Z AUTO 23010KT 10SM CLR 21/16 A2964 RMK AO2
Loading
Personal Weather Stations






























Interactive Weather Map New forecast layout! Learn more

10-Day Weather Forecast

Advertisements
Track Severe Weather on mobile